Time;durP1;ratioP1;P1;durP2;ratioP2;P2;SDS_P1;SDS_P2;PMS_P1;PMS_P2;Temp;Humidity;BMP_temperature;BMP_pressure;BME280_temperature;BME280_humidity;BME280_pressure;Samples;Min_cycle;Max_cycle;Signal;HPM_P1;HPM_P2
2023/08/21 00:00:48;;;;;;;5.77;2.50;;;;;;;21.74;100.00;102200.31;5251340;28;20421;-78
2023/08/21 00:03:19;;;;;;;6.97;2.80;;;;;;;21.67;100.00;102182.50;5252992;28;20084;-76
2023/08/21 00:05:50;;;;;;;5.90;2.30;;;;;;;21.69;100.00;102189.34;5252101;28;20029;-77
2023/08/21 00:08:22;;;;;;;6.37;2.40;;;;;;;21.80;100.00;102210.31;5249266;28;20041;-76
2023/08/21 00:10:53;;;;;;;12.93;3.40;;;;;;;21.78;100.00;102203.50;5252186;28;20039;-77
2023/08/21 00:13:24;;;;;;;6.17;2.47;;;;;;;21.80;100.00;102193.50;5234999;28;20025;-78
2023/08/21 00:15:55;;;;;;;7.27;2.67;;;;;;;21.74;100.00;102183.50;5250509;28;20074;-76
2023/08/21 00:18:27;;;;;;;5.33;2.40;;;;;;;21.69;100.00;102178.69;5250552;28;20063;-78
2023/08/21 00:20:58;;;;;;;9.50;2.93;;;;;;;21.73;100.00;102174.66;5233041;28;20021;-78
2023/08/21 00:23:31;;;;;;;6.30;2.67;;;;;;;21.71;100.00;102176.69;5250828;28;20028;-77
2023/08/21 00:26:02;;;;;;;5.38;2.45;;;;;;;21.58;100.00;102179.88;5250443;28;20028;-77
2023/08/21 00:28:34;;;;;;;6.30;3.23;;;;;;;21.54;100.00;102175.88;5251383;28;20547;-79
2023/08/21 00:31:06;;;;;;;5.40;1.92;;;;;;;21.44;100.00;102166.41;5250401;28;20031;-76
2023/08/21 00:33:37;;;;;;;5.77;2.30;;;;;;;21.37;100.00;102166.25;5249291;28;20292;-78
2023/08/21 00:36:09;;;;;;;7.47;2.77;;;;;;;21.31;100.00;102162.41;5251397;28;20029;-78
2023/08/21 00:38:40;;;;;;;8.47;2.47;;;;;;;21.26;100.00;102171.91;5247328;28;20036;-77
2023/08/21 00:41:12;;;;;;;7.00;2.60;;;;;;;21.13;100.00;102151.91;5252151;28;20359;-79
2023/08/21 00:43:43;;;;;;;7.30;2.40;;;;;;;21.20;100.00;102175.22;5251145;28;20531;-77
2023/08/21 00:46:15;;;;;;;7.70;2.40;;;;;;;21.15;100.00;102175.75;5250158;28;20123;-80
2023/08/21 00:48:47;;;;;;;7.68;2.53;;;;;;;21.29;100.00;102177.75;5250353;28;20639;-77
2023/08/21 00:51:19;;;;;;;5.07;2.20;;;;;;;21.22;100.00;102187.41;5249472;28;20075;-77
2023/08/21 00:53:50;;;;;;;7.30;2.67;;;;;;;21.19;100.00;102173.56;5251224;28;20041;-77
2023/08/21 00:56:21;;;;;;;8.10;2.90;;;;;;;21.12;100.00;102182.22;5248028;28;20095;-77
2023/08/21 00:58:53;;;;;;;6.87;2.60;;;;;;;21.22;100.00;102182.06;5251540;28;20033;-76
2023/08/21 01:01:27;;;;;;;9.97;3.33;;;;;;;21.18;100.00;102187.91;5249751;28;20574;-80
2023/08/21 01:03:59;;;;;;;6.57;2.10;;;;;;;21.16;100.00;102198.72;5249627;28;20032;-79
2023/08/21 01:06:30;;;;;;;5.10;2.40;;;;;;;21.25;100.00;102204.88;5248085;28;20021;-78
2023/08/21 01:09:21;;;;;;;6.07;2.57;;;;;;;21.55;100.00;102182.88;5250258;28;20162;-80
2023/08/21 01:12:11;;;;;;;7.05;2.42;;;;;;;21.39;100.00;102174.91;5248630;28;20134;-77
2023/08/21 01:14:56;;;;;;;8.00;2.38;;;;;;;21.30;100.00;102170.56;5251037;28;20849;-76
2023/08/21 01:17:29;;;;;;;5.88;2.67;;;;;;;21.06;100.00;102169.59;5249885;28;20068;-77
2023/08/21 01:20:00;;;;;;;7.55;2.20;;;;;;;20.97;100.00;102157.25;5248130;28;20405;-76
2023/08/21 01:22:50;;;;;;;4.70;2.33;;;;;;;21.31;100.00;102148.22;5250953;28;20021;-80
2023/08/21 01:25:21;;;;;;;8.38;2.78;;;;;;;20.95;100.00;102145.09;5252052;28;20078;-77
2023/08/21 01:27:53;;;;;;;4.33;2.07;;;;;;;21.04;100.00;102152.91;5249382;28;20037;-81
2023/08/21 01:30:28;;;;;;;5.87;2.60;;;;;;;21.05;100.00;102143.91;5249608;28;20017;-77
2023/08/21 01:33:08;;;;;;;4.60;2.05;;;;;;;21.07;100.00;102141.94;5249644;28;20032;-79
2023/08/21 01:35:40;;;;;;;6.70;2.40;;;;;;;20.85;100.00;102148.75;5247915;28;20082;-77
2023/08/21 01:38:11;;;;;;;5.83;2.10;;;;;;;20.81;100.00;102146.59;5248616;28;20466;-77
2023/08/21 01:40:43;;;;;;;5.27;1.90;;;;;;;20.78;100.00;102145.09;5249820;28;20056;-77
2023/08/21 01:43:14;;;;;;;4.97;2.03;;;;;;;20.72;100.00;102151.09;5238723;28;20112;-77
2023/08/21 01:45:46;;;;;;;4.80;2.20;;;;;;;20.70;100.00;102154.91;5256095;28;20051;-77
2023/08/21 01:48:17;;;;;;;5.47;2.20;;;;;;;20.77;100.00;102154.09;5253857;28;20036;-77
2023/08/21 01:50:48;;;;;;;5.67;2.23;;;;;;;20.78;100.00;102165.56;5253368;28;20025;-77
2023/08/21 01:53:20;;;;;;;5.83;2.10;;;;;;;20.55;100.00;102139.56;5248556;28;20033;-77
2023/08/21 01:55:51;;;;;;;5.20;1.83;;;;;;;20.62;100.00;102164.56;5248783;28;20147;-76
2023/08/21 01:58:22;;;;;;;4.20;1.97;;;;;;;20.58;100.00;102175.69;5252974;28;20159;-77
2023/08/21 02:00:54;;;;;;;5.93;2.67;;;;;;;20.57;100.00;102174.00;5252600;28;20040;-76
2023/08/21 02:03:26;;;;;;;6.10;2.60;;;;;;;20.48;100.00;102177.63;5253700;28;20029;-78
2023/08/21 02:06:00;;;;;;;6.43;3.00;;;;;;;20.44;100.00;102177.13;5254688;28;20060;-77
2023/08/21 02:08:32;;;;;;;8.10;3.35;;;;;;;20.37;100.00;102176.09;5251935;28;20112;-78
2023/08/21 02:11:04;;;;;;;5.37;2.77;;;;;;;20.36;100.00;102185.09;5232865;28;20025;-77
2023/08/21 02:13:35;;;;;;;5.67;2.67;;;;;;;20.37;100.00;102176.94;5250232;28;20029;-77
2023/08/21 02:16:06;;;;;;;7.97;2.77;;;;;;;20.28;100.00;102175.25;5234005;28;20030;-77
2023/08/21 02:18:37;;;;;;;6.83;2.63;;;;;;;20.30;100.00;102178.56;5253563;28;20486;-77
2023/08/21 02:21:09;;;;;;;8.97;3.27;;;;;;;20.24;100.00;102176.56;5252487;28;20033;-78
2023/08/21 02:23:40;;;;;;;5.03;2.50;;;;;;;20.16;100.00;102174.72;5252502;28;20032;-78
2023/08/21 02:26:11;;;;;;;7.20;2.50;;;;;;;20.11;100.00;102171.69;5252368;28;20025;-77
2023/08/21 02:28:43;;;;;;;7.37;3.17;;;;;;;20.12;100.00;102180.53;5253303;28;20028;-78
2023/08/21 02:31:14;;;;;;;6.87;2.97;;;;;;;20.08;100.00;102177.34;5247388;28;20474;-77
2023/08/21 02:33:46;;;;;;;6.90;2.73;;;;;;;20.06;100.00;102175.84;5249629;28;20040;-77
2023/08/21 02:36:17;;;;;;;7.53;3.17;;;;;;;20.01;100.00;102173.66;5251695;28;20040;-78
2023/08/21 02:38:49;;;;;;;7.27;3.10;;;;;;;19.95;100.00;102168.13;5249867;28;20440;-77
2023/08/21 02:41:21;;;;;;;6.38;2.53;;;;;;;19.80;100.00;102163.41;5248916;28;20393;-78
2023/08/21 02:43:52;;;;;;;8.73;3.83;;;;;;;19.85;100.00;102174.44;5250878;28;20024;-76
2023/08/21 02:46:23;;;;;;;6.30;2.60;;;;;;;19.87;100.00;102176.91;5250281;28;20032;-76
2023/08/21 02:48:54;;;;;;;8.20;2.80;;;;;;;19.86;100.00;102173.44;5229395;28;20048;-77
2023/08/21 02:51:26;;;;;;;5.60;2.77;;;;;;;19.83;100.00;102171.06;5249830;28;20083;-77
2023/08/21 02:53:57;;;;;;;6.00;2.53;;;;;;;19.80;100.00;102175.88;5246953;28;20016;-77
2023/08/21 02:56:28;;;;;;;5.60;2.80;;;;;;;19.79;100.00;102177.72;5248812;28;20107;-77
2023/08/21 02:59:00;;;;;;;8.37;2.70;;;;;;;19.73;100.00;102177.50;5248692;28;20029;-77
2023/08/21 03:01:31;;;;;;;7.00;2.75;;;;;;;19.62;100.00;102170.63;5250220;28;20465;-77
2023/08/21 03:04:03;;;;;;;4.57;2.47;;;;;;;19.59;100.00;102170.91;5245972;28;20443;-77
2023/08/21 03:06:34;;;;;;;6.10;2.55;;;;;;;19.62;100.00;102174.13;5247320;28;20108;-77
2023/08/21 03:09:05;;;;;;;6.75;2.78;;;;;;;19.58;100.00;102178.03;5247686;28;20020;-76
2023/08/21 03:11:36;;;;;;;5.43;2.50;;;;;;;19.53;100.00;102167.06;5248387;28;20026;-77
2023/08/21 03:14:08;;;;;;;7.80;2.30;;;;;;;19.48;100.00;102176.50;5248299;28;20033;-77
2023/08/21 03:16:39;;;;;;;7.63;2.75;;;;;;;19.47;100.00;102174.81;5248116;28;20064;-77
2023/08/21 03:19:10;;;;;;;5.18;2.50;;;;;;;19.41;100.00;102168.31;5249472;28;20543;-77
2023/08/21 03:21:41;;;;;;;5.65;2.50;;;;;;;19.48;100.00;102171.19;5247419;28;20029;-75
2023/08/21 03:24:13;;;;;;;6.00;2.28;;;;;;;19.53;100.00;102179.50;5249592;28;20070;-77
2023/08/21 03:26:44;;;;;;;5.00;2.55;;;;;;;19.50;100.00;102182.47;5248109;28;20040;-77
2023/08/21 03:29:15;;;;;;;4.18;2.40;;;;;;;19.43;100.00;102182.25;5249890;28;20083;-77
2023/08/21 03:31:49;;;;;;;5.73;2.63;;;;;;;19.46;100.00;102171.31;5249150;28;20075;-77
2023/08/21 03:34:20;;;;;;;7.43;2.60;;;;;;;19.43;100.00;102187.56;5246638;28;20367;-76
2023/08/21 03:36:51;;;;;;;8.10;2.85;;;;;;;19.49;100.00;102186.13;5247270;28;20029;-77
2023/08/21 03:39:23;;;;;;;6.13;2.53;;;;;;;19.42;100.00;102181.44;5249073;28;20033;-77
2023/08/21 03:41:54;;;;;;;6.13;2.83;;;;;;;19.43;100.00;102179.59;5248205;28;20021;-77
2023/08/21 03:44:25;;;;;;;5.00;2.27;;;;;;;19.26;100.00;102165.38;5247999;28;20041;-76
2023/08/21 03:46:57;;;;;;;7.03;2.40;;;;;;;19.31;100.00;102176.38;5248711;28;20075;-77
2023/08/21 03:49:28;;;;;;;7.20;2.63;;;;;;;19.25;100.00;102173.50;5248144;28;20037;-77
2023/08/21 03:51:59;;;;;;;5.77;2.33;;;;;;;19.17;100.00;102168.97;5249102;28;20390;-77
2023/08/21 03:54:30;;;;;;;4.73;2.50;;;;;;;19.14;100.00;102179.91;5243549;28;20040;-77
2023/08/21 03:57:02;;;;;;;7.28;2.50;;;;;;;19.07;100.00;102178.84;5250357;28;20029;-77
2023/08/21 03:59:33;;;;;;;5.80;2.60;;;;;;;19.05;100.00;102176.31;5247939;28;20033;-77
2023/08/21 04:02:05;;;;;;;6.28;2.75;;;;;;;19.04;100.00;102168.53;5229827;28;20589;-76
2023/08/21 04:04:36;;;;;;;4.88;2.60;;;;;;;19.03;100.00;102156.25;5247904;28;20581;-77
2023/08/21 04:07:07;;;;;;;3.47;2.10;;;;;;;19.01;100.00;102167.00;5249987;28;20044;-76
2023/08/21 04:09:38;;;;;;;6.68;2.80;;;;;;;19.02;100.00;102171.34;5230566;28;20412;-77
2023/08/21 04:12:10;;;;;;;6.60;3.03;;;;;;;19.03;100.00;102174.84;5248519;28;20141;-77
2023/08/21 04:14:41;;;;;;;5.57;2.53;;;;;;;19.01;100.00;102174.13;5245273;28;20083;-77
2023/08/21 04:17:12;;;;;;;5.65;2.50;;;;;;;18.96;100.00;102174.59;5248759;28;20043;-77
2023/08/21 04:19:43;;;;;;;5.10;2.63;;;;;;;19.00;100.00;102186.59;5247956;28;20112;-77
2023/08/21 04:22:15;;;;;;;4.63;2.53;;;;;;;18.99;100.00;102190.22;5247363;28;20049;-77
2023/08/21 04:24:46;;;;;;;5.30;2.85;;;;;;;19.04;100.00;102190.59;5247447;28;20398;-76
2023/08/21 04:27:17;;;;;;;6.40;3.03;;;;;;;19.08;100.00;102201.75;5253274;28;20130;-77
2023/08/21 04:29:48;;;;;;;4.72;2.67;;;;;;;19.11;100.00;102196.97;5252192;28;20063;-76
2023/08/21 04:32:20;;;;;;;8.52;3.33;;;;;;;19.13;100.00;102197.66;5248089;28;20390;-76
2023/08/21 04:34:51;;;;;;;6.70;2.85;;;;;;;19.15;100.00;102202.81;5244497;28;20111;-77
2023/08/21 04:37:23;;;;;;;8.33;3.10;;;;;;;19.18;100.00;102192.72;5247627;28;20031;-76
2023/08/21 04:39:55;;;;;;;8.33;3.17;;;;;;;19.15;100.00;102187.72;5250930;28;20033;-77
2023/08/21 04:42:26;;;;;;;8.63;3.47;;;;;;;19.24;100.00;102201.06;5251269;28;20032;-75
2023/08/21 04:44:57;;;;;;;13.13;3.72;;;;;;;19.23;100.00;102200.22;5250530;28;20419;-75
2023/08/21 04:47:29;;;;;;;9.43;2.83;;;;;;;19.34;100.00;102215.09;5244131;28;20070;-77
2023/08/21 04:50:00;;;;;;;9.60;3.67;;;;;;;19.38;100.00;102209.31;5249443;28;20789;-77
2023/08/21 04:52:31;;;;;;;10.77;3.20;;;;;;;19.40;100.00;102214.50;5251885;28;20025;-77
2023/08/21 04:55:03;;;;;;;9.50;3.23;;;;;;;19.42;100.00;102205.34;5230960;28;20027;-76
2023/08/21 04:57:34;;;;;;;9.60;3.57;;;;;;;19.48;100.00;102208.41;5232969;28;20600;-77
2023/08/21 05:00:06;;;;;;;10.65;3.35;;;;;;;19.45;100.00;102210.34;5249695;28;20020;-75
2023/08/21 05:02:37;;;;;;;3.77;3.20;;;;;;;19.42;100.00;102210.66;5249610;28;20021;-76
2023/08/21 05:05:09;;;;;;;9.10;3.70;;;;;;;19.45;100.00;102206.88;5248328;28;20036;-76
2023/08/21 05:07:40;;;;;;;9.85;3.47;;;;;;;19.46;100.00;102208.53;5251718;28;20037;-77
2023/08/21 05:10:11;;;;;;;13.47;3.83;;;;;;;19.49;100.00;102210.88;5248417;28;20080;-75
2023/08/21 05:12:43;;;;;;;7.10;3.33;;;;;;;19.41;100.00;102214.31;5249902;28;20025;-77
2023/08/21 05:15:14;;;;;;;12.80;4.10;;;;;;;19.33;100.00;102214.25;5251099;28;20032;-75
2023/08/21 05:17:45;;;;;;;14.55;3.92;;;;;;;19.37;100.00;102220.09;5247289;28;20483;-77
2023/08/21 05:20:17;;;;;;;9.13;3.42;;;;;;;19.38;100.00;102219.09;5247820;28;20055;-77
2023/08/21 05:22:48;;;;;;;10.70;3.97;;;;;;;19.41;100.00;102224.13;5249931;28;20025;-76
2023/08/21 05:25:20;;;;;;;7.50;3.17;;;;;;;19.52;100.00;102220.38;5248576;28;20033;-77
2023/08/21 05:27:51;;;;;;;9.10;3.70;;;;;;;19.52;100.00;102225.69;5232896;28;20178;-75
2023/08/21 05:30:23;;;;;;;11.30;3.63;;;;;;;19.56;100.00;102224.41;5251863;28;20086;-77
2023/08/21 05:32:54;;;;;;;7.75;3.42;;;;;;;19.66;100.00;102228.66;5251406;28;20509;-77
2023/08/21 05:35:25;;;;;;;7.90;3.65;;;;;;;19.64;100.00;102217.34;5252165;28;20033;-77
2023/08/21 05:37:57;;;;;;;9.13;4.07;;;;;;;19.75;100.00;102236.69;5251117;28;20043;-77
2023/08/21 05:40:28;;;;;;;8.80;3.60;;;;;;;19.78;100.00;102233.72;5235937;28;20032;-77
2023/08/21 05:42:59;;;;;;;8.43;3.65;;;;;;;19.81;100.00;102230.72;5254467;28;20478;-77
2023/08/21 05:45:31;;;;;;;7.35;4.03;;;;;;;19.83;100.00;102234.91;5250260;28;20049;-77
2023/08/21 05:48:03;;;;;;;7.30;3.75;;;;;;;19.75;100.00;102216.25;5253920;28;20024;-77
2023/08/21 05:50:36;;;;;;;9.67;3.93;;;;;;;19.78;100.00;102221.25;5253642;28;20126;-76
2023/08/21 05:53:07;;;;;;;9.05;4.28;;;;;;;19.82;100.00;102230.59;5253425;28;20025;-76
2023/08/21 05:55:40;;;;;;;8.23;3.67;;;;;;;19.92;100.00;102233.94;5251015;28;20500;-77
2023/08/21 05:58:11;;;;;;;6.93;4.10;;;;;;;19.97;100.00;102240.66;5236270;28;20082;-76
2023/08/21 06:00:44;;;;;;;7.30;3.93;;;;;;;19.97;100.00;102233.50;5252678;28;20025;-77
2023/08/21 06:03:15;;;;;;;;;;;;;;;20.74;100.00;102236.97;5251597;28;20017;-77
2023/08/21 06:05:47;;;;;;;10.98;4.30;;;;;;;20.03;100.00;102232.84;5247992;28;19977;-77
2023/08/21 06:08:18;;;;;;;7.03;4.10;;;;;;;20.11;100.00;102238.22;5232302;28;20372;-76
2023/08/21 06:10:53;;;;;;;7.77;4.27;;;;;;;20.24;100.00;102244.94;5248685;28;20151;-76
2023/08/21 06:13:25;;;;;;;7.82;4.55;;;;;;;20.10;100.00;102243.69;5250759;28;20059;-76
2023/08/21 06:15:56;;;;;;;9.30;5.40;;;;;;;20.14;100.00;102248.53;5253443;28;20060;-77
2023/08/21 06:18:27;;;;;;;9.53;5.53;;;;;;;20.18;100.00;102244.56;5253374;28;20347;-76
2023/08/21 06:20:59;;;;;;;7.83;4.50;;;;;;;20.20;100.00;102244.41;5250661;28;20094;-77
2023/08/21 06:23:30;;;;;;;9.32;5.55;;;;;;;20.29;100.00;102255.94;5253593;28;20104;-76
2023/08/21 06:26:01;;;;;;;7.80;5.47;;;;;;;20.33;100.00;102257.28;5253434;28;20025;-76
2023/08/21 06:28:32;;;;;;;9.25;5.32;;;;;;;20.40;100.00;102259.13;5251827;28;20021;-77
2023/08/21 06:31:07;;;;;;;10.67;5.40;;;;;;;20.50;100.00;102258.22;5249470;28;20033;-77
2023/08/21 06:33:38;;;;;;;9.15;5.35;;;;;;;20.56;100.00;102265.53;5233214;28;20426;-77
2023/08/21 06:36:09;;;;;;;6.55;4.93;;;;;;;20.69;100.00;102262.44;5248674;28;20040;-77
2023/08/21 06:38:40;;;;;;;10.97;5.73;;;;;;;20.62;100.00;102243.63;5252346;28;20033;-77
2023/08/21 06:41:12;;;;;;;8.87;5.30;;;;;;;20.81;100.00;102261.97;5247754;28;20033;-77
2023/08/21 06:43:43;;;;;;;9.33;5.47;;;;;;;20.93;100.00;102251.84;5251360;28;20021;-76
2023/08/21 06:46:15;;;;;;;10.20;5.17;;;;;;;21.03;100.00;102260.50;5252960;28;20052;-77
2023/08/21 06:48:46;;;;;;;11.77;5.30;;;;;;;21.20;100.00;102260.53;5233353;28;20036;-77
2023/08/21 06:51:18;;;;;;;8.87;5.17;;;;;;;21.19;100.00;102249.03;5251875;28;20036;-77
2023/08/21 06:53:49;;;;;;;9.70;5.43;;;;;;;21.36;100.00;102252.56;5253664;28;20029;-76
2023/08/21 06:56:20;;;;;;;9.33;5.43;;;;;;;21.48;100.00;102259.25;5248758;28;20045;-77
2023/08/21 06:58:52;;;;;;;9.30;5.00;;;;;;;21.54;100.00;102252.38;5253880;28;20021;-77
2023/08/21 07:01:23;;;;;;;8.10;5.00;;;;;;;21.66;100.00;102264.38;5252985;28;20370;-76
2023/08/21 07:03:54;;;;;;;10.00;5.30;;;;;;;21.73;100.00;102267.19;5251264;28;20048;-76
2023/08/21 07:06:28;;;;;;;11.50;5.53;;;;;;;21.79;100.00;102258.53;5250657;28;20032;-75
2023/08/21 07:08:59;;;;;;;9.23;5.38;;;;;;;21.76;100.00;102256.19;5252846;28;20028;-77
2023/08/21 07:11:31;;;;;;;11.90;5.43;;;;;;;21.85;100.00;102258.66;5248626;28;20478;-77
2023/08/21 07:14:02;;;;;;;11.07;5.47;;;;;;;22.03;100.00;102261.13;5235447;28;20039;-77
2023/08/21 07:16:34;;;;;;;9.40;5.50;;;;;;;22.06;100.00;102252.78;5254084;28;20032;-78
2023/08/21 07:19:05;;;;;;;12.13;5.20;;;;;;;22.22;100.00;102262.59;5249398;28;20021;-76
2023/08/21 07:21:38;;;;;;;7.00;4.70;;;;;;;22.30;100.00;102269.75;5249269;28;20051;-77
2023/08/21 07:24:09;;;;;;;;;;;;;;;23.09;100.00;102267.84;5252848;28;20083;-76
2023/08/21 07:26:40;;;;;;;8.70;4.40;;;;;;;22.46;100.00;102256.31;5250651;28;19925;-77
2023/08/21 07:29:11;;;;;;;8.13;3.37;;;;;;;22.48;100.00;102246.31;5249924;28;20033;-77
2023/08/21 07:31:43;;;;;;;8.57;3.47;;;;;;;22.73;100.00;102265.72;5252005;28;20079;-77
2023/08/21 07:34:14;;;;;;;7.63;4.17;;;;;;;22.79;100.00;102248.13;5252225;28;20036;-78
2023/08/21 07:36:45;;;;;;;8.37;3.90;;;;;;;22.98;100.00;102263.75;5253111;28;20029;-77
2023/08/21 07:39:16;;;;;;;5.57;2.87;;;;;;;22.96;100.00;102264.94;5248233;28;20821;-77
2023/08/21 07:41:48;;;;;;;7.83;2.70;;;;;;;23.09;100.00;102261.66;5251459;28;20033;-80
2023/08/21 07:44:19;;;;;;;7.80;2.63;;;;;;;23.26;100.00;102268.53;5250246;28;20040;-77
2023/08/21 07:46:50;;;;;;;5.77;2.80;;;;;;;23.35;100.00;102266.66;5250078;28;20025;-77
2023/08/21 07:49:22;;;;;;;5.40;2.70;;;;;;;23.51;99.51;102263.81;5250817;28;20486;-78
2023/08/21 07:51:53;;;;;;;5.40;2.70;;;;;;;23.58;95.03;102270.13;5251416;28;20402;-78
2023/08/21 07:54:24;;;;;;;7.63;2.93;;;;;;;23.59;99.03;102263.75;5249828;28;20531;-81
2023/08/21 07:56:55;;;;;;;5.17;2.63;;;;;;;23.71;98.14;102267.66;5233002;28;20048;-77
2023/08/21 07:59:27;;;;;;;6.43;2.33;;;;;;;23.82;99.92;102274.41;5252304;28;20505;-77
2023/08/21 08:02:00;;;;;;;8.93;3.53;;;;;;;23.91;98.03;102277.88;5252615;28;20047;-78
2023/08/21 08:04:31;;;;;;;8.18;3.22;;;;;;;23.79;97.27;102262.25;5254403;28;20035;-80
2023/08/21 08:07:02;;;;;;;6.60;3.10;;;;;;;23.98;94.28;102268.91;5252637;28;20025;-77
2023/08/21 08:09:34;;;;;;;8.50;3.53;;;;;;;24.21;92.50;102274.19;5255455;28;20079;-77
2023/08/21 08:12:05;;;;;;;7.57;2.67;;;;;;;24.32;92.18;102280.06;5253672;28;20052;-82
2023/08/21 08:14:37;;;;;;;7.07;3.40;;;;;;;24.55;91.46;102280.81;5255932;28;20037;-79
2023/08/21 08:17:09;;;;;;;6.80;3.50;;;;;;;24.74;91.04;102282.91;5250682;28;20460;-79
2023/08/21 08:19:40;;;;;;;8.53;3.17;;;;;;;24.84;88.49;102289.78;5253902;28;20123;-76
2023/08/21 08:22:11;;;;;;;6.53;3.00;;;;;;;24.87;81.12;102284.88;5253759;28;20028;-79
2023/08/21 08:24:42;;;;;;;6.80;2.83;;;;;;;25.08;83.82;102281.41;5255546;28;20036;-77
2023/08/21 08:27:14;;;;;;;6.80;2.80;;;;;;;25.10;82.39;102281.22;5253650;28;20052;-78
2023/08/21 08:29:45;;;;;;;7.90;2.63;;;;;;;25.19;80.67;102282.75;5253466;28;20438;-77
2023/08/21 08:32:16;;;;;;;7.53;2.17;;;;;;;25.21;76.23;102276.19;5253191;28;20064;-78
2023/08/21 08:34:48;;;;;;;6.40;1.83;;;;;;;25.43;75.93;102281.53;5253846;28;20036;-80
2023/08/21 08:37:19;;;;;;;5.47;1.90;;;;;;;25.47;76.05;102277.44;5254260;28;20099;-80
2023/08/21 08:39:51;;;;;;;5.57;1.90;;;;;;;25.60;71.57;102282.06;5256185;28;20035;-80
2023/08/21 08:42:22;;;;;;;5.03;1.70;;;;;;;25.61;63.72;102279.22;5254477;28;20231;-78
2023/08/21 08:44:56;;;;;;;5.67;2.63;;;;;;;25.59;68.97;102269.69;5254069;28;20044;-79
2023/08/21 08:47:28;;;;;;;4.10;1.63;;;;;;;25.75;72.97;102277.44;5250634;28;20452;-80
2023/08/21 08:50:03;;;;;;;6.93;2.10;;;;;;;25.79;70.40;102277.91;5253277;28;20029;-77
2023/08/21 08:52:36;;;;;;;7.45;2.20;;;;;;;25.83;70.07;102285.34;5253764;28;20041;-77
2023/08/21 08:55:08;;;;;;;5.15;1.90;;;;;;;25.84;67.29;102288.91;5253084;28;20063;-77
2023/08/21 08:57:39;;;;;;;5.33;2.30;;;;;;;25.91;68.91;102295.13;5255169;28;20497;-77
2023/08/21 09:00:11;;;;;;;4.77;1.63;;;;;;;25.90;70.82;102283.53;5252049;28;20040;-80
2023/08/21 09:02:42;;;;;;;6.13;2.20;;;;;;;25.82;71.46;102294.44;5253201;28;20020;-77
2023/08/21 09:05:14;;;;;;;7.27;2.07;;;;;;;25.90;73.46;102288.09;5254508;28;20035;-80
2023/08/21 09:07:45;;;;;;;6.67;2.27;;;;;;;26.04;70.94;102281.78;5253235;28;20037;-79
2023/08/21 09:10:16;;;;;;;5.27;2.40;;;;;;;26.12;67.88;102270.06;5254885;28;20060;-79
2023/08/21 09:12:48;;;;;;;8.93;2.37;;;;;;;26.19;67.74;102282.50;5251670;28;20040;-78
2023/08/21 09:15:19;;;;;;;7.63;3.27;;;;;;;26.20;70.70;102272.56;5252530;28;20039;-77
2023/08/21 09:17:54;;;;;;;9.93;2.50;;;;;;;26.40;71.10;102278.88;5252737;28;20116;-77
2023/08/21 09:20:25;;;;;;;8.18;2.00;;;;;;;26.32;70.02;102273.66;5251889;28;20541;-77
2023/08/21 09:22:56;;;;;;;5.23;1.97;;;;;;;26.60;67.23;102272.78;5235552;28;20028;-80
2023/08/21 09:25:28;;;;;;;7.63;2.23;;;;;;;26.65;66.70;102281.06;5254870;28;20063;-80
2023/08/21 09:27:59;;;;;;;5.33;2.23;;;;;;;26.77;63.75;102279.41;5253420;28;20670;-77
2023/08/21 09:30:43;;;;;;;6.37;1.57;;;;;;;27.06;66.90;102285.50;5252171;28;20058;-79
2023/08/21 09:33:17;;;;;;;4.45;1.70;;;;;;;26.93;66.11;102281.75;5254008;28;20036;-81
2023/08/21 09:35:52;;;;;;;8.15;2.40;;;;;;;27.04;66.42;102269.53;5252079;28;20428;-80
2023/08/21 09:38:26;;;;;;;6.45;1.60;;;;;;;27.12;64.79;102272.09;5244546;28;20033;-79
2023/08/21 09:40:58;;;;;;;5.20;1.50;;;;;;;27.26;62.02;102272.09;5250402;28;20118;-77
2023/08/21 09:43:30;;;;;;;;;;;;;;;28.14;63.04;102278.81;5254608;28;20033;-77
2023/08/21 09:46:01;;;;;;;7.87;2.00;;;;;;;27.21;57.72;102272.72;5252035;28;19927;-77
2023/08/21 09:48:33;;;;;;;4.63;1.63;;;;;;;27.29;60.42;102263.59;5250035;28;20291;-80
2023/08/21 09:51:04;;;;;;;5.00;2.10;;;;;;;27.48;57.26;102278.09;5251051;28;20033;-78
2023/08/21 09:53:35;;;;;;;7.03;1.70;;;;;;;27.50;58.73;102274.13;5247947;28;20040;-77
2023/08/21 09:56:08;;;;;;;6.13;1.83;;;;;;;27.50;57.37;102265.25;5248534;28;20125;-78
2023/08/21 09:58:40;;;;;;;5.03;1.60;;;;;;;27.60;56.37;102268.34;5250648;28;20044;-80
2023/08/21 10:01:13;;;;;;;6.40;1.85;;;;;;;27.47;57.49;102266.50;5250293;28;20096;-79
2023/08/21 10:03:47;;;;;;;3.55;1.17;;;;;;;27.60;60.40;102271.03;5248615;28;20651;-77
2023/08/21 10:06:20;;;;;;;6.90;1.75;;;;;;;27.68;58.86;102270.00;5252869;28;20037;-80
2023/08/21 10:08:54;;;;;;;5.78;1.63;;;;;;;27.82;62.01;102267.09;5246787;28;20029;-81
2023/08/21 10:11:26;;;;;;;4.93;2.00;;;;;;;27.81;57.26;102261.94;5249703;28;20036;-79
2023/08/21 10:13:58;;;;;;;3.63;1.60;;;;;;;27.91;56.97;102253.41;5253819;28;20037;-78
2023/08/21 10:16:29;;;;;;;6.10;2.08;;;;;;;28.10;52.55;102257.91;5249742;28;20029;-78
2023/08/21 10:19:05;;;;;;;8.10;1.67;;;;;;;28.20;55.60;102252.06;5253168;28;20029;-79
2023/08/21 10:21:37;;;;;;;3.72;1.45;;;;;;;28.04;54.68;102239.91;5251564;28;20030;-77
2023/08/21 10:24:08;;;;;;;4.40;1.50;;;;;;;28.33;55.92;102249.31;5253359;28;20462;-77
2023/08/21 10:26:40;;;;;;;6.97;1.70;;;;;;;28.39;55.28;102247.66;5249690;28;20025;-77
2023/08/21 10:29:12;;;;;;;4.87;1.93;;;;;;;28.30;51.03;102255.97;5252891;28;20021;-81
2023/08/21 10:31:44;;;;;;;5.88;1.63;;;;;;;28.34;48.36;102256.38;5251858;28;20031;-77
2023/08/21 10:34:18;;;;;;;5.90;1.77;;;;;;;28.53;50.10;102257.34;5252770;28;20033;-81
2023/08/21 10:37:09;;;;;;;4.22;1.48;;;;;;;28.87;50.85;102258.81;5251142;28;20056;-77
2023/08/21 10:39:55;;;;;;;4.85;1.30;;;;;;;28.80;48.47;102245.34;5252020;28;20064;-79
2023/08/21 10:42:40;;;;;;;4.35;1.35;;;;;;;28.83;51.33;102244.94;5232809;28;20028;-79
2023/08/21 10:45:12;;;;;;;3.45;1.33;;;;;;;28.62;49.33;102250.66;5248929;28;20087;-77
2023/08/21 10:47:46;;;;;;;;;;;;;;;29.63;48.50;102254.31;5251886;28;20029;-79
2023/08/21 10:50:18;;;;;;;4.32;1.27;;;;;;;28.73;46.76;102252.66;5249889;28;19917;-78
2023/08/21 10:52:52;;;;;;;5.10;1.13;;;;;;;28.77;47.61;102253.88;5252208;28;20021;-77
2023/08/21 10:55:23;;;;;;;5.20;1.70;;;;;;;28.71;47.92;102262.81;5251794;28;20826;-77
2023/08/21 10:57:54;;;;;;;3.97;1.30;;;;;;;28.56;48.17;102259.59;5248268;28;20028;-81
2023/08/21 11:00:25;;;;;;;5.00;1.37;;;;;;;28.81;49.91;102262.38;5247949;28;20032;-78
2023/08/21 11:02:57;;;;;;;6.90;1.90;;;;;;;28.78;49.00;102260.09;5233188;28;20036;-77
2023/08/21 11:05:28;;;;;;;5.17;1.73;;;;;;;28.88;47.55;102252.34;5249360;28;20047;-77
2023/08/21 11:07:59;;;;;;;5.13;1.63;;;;;;;29.05;45.61;102255.38;5248827;28;20036;-79
2023/08/21 11:10:32;;;;;;;4.37;1.50;;;;;;;29.13;47.37;102247.00;5251334;28;20289;-78
2023/08/21 11:13:06;;;;;;;3.25;1.10;;;;;;;29.33;46.42;102250.38;5243991;28;20048;-80
2023/08/21 11:15:37;;;;;;;5.25;1.40;;;;;;;29.25;46.38;102244.44;5232847;28;20028;-77
2023/08/21 11:18:09;;;;;;;4.00;1.20;;;;;;;29.55;45.86;102248.09;5248568;28;20413;-80
2023/08/21 11:20:41;;;;;;;4.20;1.43;;;;;;;29.59;44.32;102245.81;5230869;28;20387;-79
2023/08/21 11:23:12;;;;;;;6.35;1.88;;;;;;;29.55;44.60;102239.19;5251082;28;20028;-77
2023/08/21 11:25:43;;;;;;;6.27;1.93;;;;;;;29.52;43.44;102218.84;5249305;28;20091;-81
2023/08/21 11:28:16;;;;;;;4.00;1.67;;;;;;;29.54;45.37;102240.19;5231697;28;20025;-79
2023/08/21 11:30:48;;;;;;;6.75;1.40;;;;;;;29.86;43.72;102240.13;5248496;28;20464;-78
2023/08/21 11:33:19;;;;;;;4.07;1.63;;;;;;;29.61;45.88;102237.47;5245901;28;20032;-78
2023/08/21 11:35:53;;;;;;;7.07;2.33;;;;;;;29.49;44.33;102237.34;5249396;28;20308;-79
2023/08/21 11:38:26;;;;;;;6.28;1.67;;;;;;;29.03;48.07;102241.28;5237804;28;20666;-77
2023/08/21 11:41:02;;;;;;;5.10;1.55;;;;;;;28.85;47.67;102250.91;5252423;28;20482;-80